sensor_id;sensor_type;location;lat;lon;timestamp;pressure;altitude;pressure_sealevel;temperature;humidity
79465;BME280;68932;47.410;8.232;2023-07-13T00:00:56;96917.49;;;19.44;77.77
79465;BME280;68932;47.410;8.232;2023-07-13T00:03:25;96911.58;;;19.43;77.67
79465;BME280;68932;47.410;8.232;2023-07-13T00:06:01;96908.66;;;19.40;77.91
79465;BME280;68932;47.410;8.232;2023-07-13T00:08:31;96908.61;;;19.37;77.79
79465;BME280;68932;47.410;8.232;2023-07-13T00:11:00;96906.46;;;19.35;77.81
79465;BME280;68932;47.410;8.232;2023-07-13T00:13:29;96904.58;;;19.35;78.00
79465;BME280;68932;47.410;8.232;2023-07-13T00:15:59;96897.77;;;19.35;78.09
79465;BME280;68932;47.410;8.232;2023-07-13T00:18:27;96889.58;;;19.35;78.10
79465;BME280;68932;47.410;8.232;2023-07-13T00:20:55;96884.55;;;19.36;78.21
79465;BME280;68932;47.410;8.232;2023-07-13T00:23:23;96881.28;;;19.36;78.14
79465;BME280;68932;47.410;8.232;2023-07-13T00:25:52;96882.23;;;19.36;78.18
79465;BME280;68932;47.410;8.232;2023-07-13T00:28:20;96889.67;;;19.36;78.17
79465;BME280;68932;47.410;8.232;2023-07-13T00:30:48;96890.81;;;19.35;78.19
79465;BME280;68932;47.410;8.232;2023-07-13T00:33:16;96885.96;;;19.32;77.85
79465;BME280;68932;47.410;8.232;2023-07-13T00:35:45;96889.36;;;19.32;78.23
79465;BME280;68932;47.410;8.232;2023-07-13T00:38:13;96883.98;;;19.31;78.22
79465;BME280;68932;47.410;8.232;2023-07-13T00:40:41;96880.88;;;19.30;78.25
79465;BME280;68932;47.410;8.232;2023-07-13T00:43:14;96877.17;;;19.28;78.25
79465;BME280;68932;47.410;8.232;2023-07-13T00:46:15;96883.10;;;19.27;78.23
79465;BME280;68932;47.410;8.232;2023-07-13T00:48:44;96877.70;;;19.26;78.25
79465;BME280;68932;47.410;8.232;2023-07-13T00:51:15;96870.27;;;19.26;78.17
79465;BME280;68932;47.410;8.232;2023-07-13T00:53:43;96869.73;;;19.25;78.19
79465;BME280;68932;47.410;8.232;2023-07-13T00:56:12;96862.03;;;19.24;78.26
79465;BME280;68932;47.410;8.232;2023-07-13T00:58:41;96861.04;;;19.21;78.17
79465;BME280;68932;47.410;8.232;2023-07-13T01:01:10;96861.08;;;19.19;78.27
79465;BME280;68932;47.410;8.232;2023-07-13T01:03:38;96867.67;;;19.16;78.38
79465;BME280;68932;47.410;8.232;2023-07-13T01:06:06;96877.85;;;19.14;78.39
79465;BME280;68932;47.410;8.232;2023-07-13T01:08:35;96890.34;;;19.13;78.62
79465;BME280;68932;47.410;8.232;2023-07-13T01:11:03;96889.25;;;19.14;78.62
79465;BME280;68932;47.410;8.232;2023-07-13T01:13:31;96882.67;;;19.14;78.61
79465;BME280;68932;47.410;8.232;2023-07-13T01:16:03;96879.84;;;19.12;78.62
79465;BME280;68932;47.410;8.232;2023-07-13T01:18:33;96885.59;;;19.10;78.78
79465;BME280;68932;47.410;8.232;2023-07-13T01:21:03;96888.11;;;19.08;78.93
79465;BME280;68932;47.410;8.232;2023-07-13T01:23:33;96891.90;;;19.07;78.87
79465;BME280;68932;47.410;8.232;2023-07-13T01:26:01;96897.23;;;19.07;78.91
79465;BME280;68932;47.410;8.232;2023-07-13T01:28:30;96900.05;;;19.07;79.00
79465;BME280;68932;47.410;8.232;2023-07-13T01:30:59;96902.95;;;19.07;79.01
79465;BME280;68932;47.410;8.232;2023-07-13T01:33:28;96894.92;;;19.07;79.27
79465;BME280;68932;47.410;8.232;2023-07-13T01:35:56;96897.61;;;19.07;79.32
79465;BME280;68932;47.410;8.232;2023-07-13T01:38:25;96910.54;;;19.06;79.45
79465;BME280;68932;47.410;8.232;2023-07-13T01:40:54;96913.93;;;19.05;79.53
79465;BME280;68932;47.410;8.232;2023-07-13T01:43:22;96915.30;;;19.04;79.55
79465;BME280;68932;47.410;8.232;2023-07-13T01:45:50;96908.63;;;19.03;79.61
79465;BME280;68932;47.410;8.232;2023-07-13T01:48:19;96911.61;;;19.02;79.78
79465;BME280;68932;47.410;8.232;2023-07-13T01:50:48;96913.98;;;19.01;79.72
79465;BME280;68932;47.410;8.232;2023-07-13T01:53:17;96910.05;;;19.00;79.81
79465;BME280;68932;47.410;8.232;2023-07-13T01:55:45;96907.50;;;18.99;79.94
79465;BME280;68932;47.410;8.232;2023-07-13T01:58:13;96904.27;;;18.99;79.87
79465;BME280;68932;47.410;8.232;2023-07-13T02:00:41;96904.33;;;18.99;79.91
79465;BME280;68932;47.410;8.232;2023-07-13T02:03:09;96904.73;;;18.98;80.06
79465;BME280;68932;47.410;8.232;2023-07-13T02:05:38;96905.71;;;18.95;79.97
79465;BME280;68932;47.410;8.232;2023-07-13T02:08:07;96902.29;;;18.92;79.95
79465;BME280;68932;47.410;8.232;2023-07-13T02:10:36;96896.95;;;18.89;79.98
79465;BME280;68932;47.410;8.232;2023-07-13T02:13:06;96896.79;;;18.87;79.83
79465;BME280;68932;47.410;8.232;2023-07-13T02:15:37;96889.05;;;18.85;79.71
79465;BME280;68932;47.410;8.232;2023-07-13T02:18:06;96885.05;;;18.82;79.83
79465;BME280;68932;47.410;8.232;2023-07-13T02:20:34;96889.38;;;18.81;79.89
79465;BME280;68932;47.410;8.232;2023-07-13T02:23:03;96894.38;;;18.81;79.84
79465;BME280;68932;47.410;8.232;2023-07-13T02:25:32;96896.95;;;18.82;79.72
79465;BME280;68932;47.410;8.232;2023-07-13T02:28:00;96896.81;;;18.83;79.78
79465;BME280;68932;47.410;8.232;2023-07-13T02:30:29;96899.36;;;18.85;79.49
79465;BME280;68932;47.410;8.232;2023-07-13T02:32:58;96900.30;;;18.84;79.31
79465;BME280;68932;47.410;8.232;2023-07-13T02:35:26;96897.88;;;18.84;79.29
79465;BME280;68932;47.410;8.232;2023-07-13T02:37:54;96887.39;;;18.82;79.22
79465;BME280;68932;47.410;8.232;2023-07-13T02:40:22;96887.75;;;18.82;79.16
79465;BME280;68932;47.410;8.232;2023-07-13T02:42:51;96889.55;;;18.80;78.96
79465;BME280;68932;47.410;8.232;2023-07-13T02:45:19;96888.71;;;18.79;78.76
79465;BME280;68932;47.410;8.232;2023-07-13T02:47:47;96886.27;;;18.79;78.68
79465;BME280;68932;47.410;8.232;2023-07-13T02:50:16;96891.55;;;18.77;78.77
79465;BME280;68932;47.410;8.232;2023-07-13T02:52:44;96898.13;;;18.75;78.42
79465;BME280;68932;47.410;8.232;2023-07-13T02:55:13;96901.20;;;18.73;78.28
79465;BME280;68932;47.410;8.232;2023-07-13T02:57:41;96895.92;;;18.69;78.11
79465;BME280;68932;47.410;8.232;2023-07-13T03:00:11;96896.02;;;18.64;77.96
79465;BME280;68932;47.410;8.232;2023-07-13T03:02:40;96891.20;;;18.59;77.74
79465;BME280;68932;47.410;8.232;2023-07-13T03:05:09;96890.67;;;18.54;77.60
79465;BME280;68932;47.410;8.232;2023-07-13T03:07:37;96896.48;;;18.49;77.74
79465;BME280;68932;47.410;8.232;2023-07-13T03:10:07;96901.34;;;18.47;77.71
79465;BME280;68932;47.410;8.232;2023-07-13T03:12:35;96901.71;;;18.46;77.91
79465;BME280;68932;47.410;8.232;2023-07-13T03:15:05;96897.74;;;18.47;78.07
79465;BME280;68932;47.410;8.232;2023-07-13T03:17:33;96898.88;;;18.46;77.95
79465;BME280;68932;47.410;8.232;2023-07-13T03:20:01;96896.34;;;18.45;77.75
79465;BME280;68932;47.410;8.232;2023-07-13T03:22:30;96889.90;;;18.44;77.82
79465;BME280;68932;47.410;8.232;2023-07-13T03:24:58;96888.95;;;18.43;77.75
79465;BME280;68932;47.410;8.232;2023-07-13T03:27:27;96890.29;;;18.40;77.55
79465;BME280;68932;47.410;8.232;2023-07-13T03:29:55;96889.58;;;18.38;77.58
79465;BME280;68932;47.410;8.232;2023-07-13T03:32:23;96891.33;;;18.36;77.51
79465;BME280;68932;47.410;8.232;2023-07-13T03:34:52;96895.21;;;18.34;77.77
79465;BME280;68932;47.410;8.232;2023-07-13T03:37:20;96895.18;;;18.31;77.67
79465;BME280;68932;47.410;8.232;2023-07-13T03:39:48;96896.82;;;18.29;77.83
79465;BME280;68932;47.410;8.232;2023-07-13T03:42:17;96901.48;;;18.27;77.89
79465;BME280;68932;47.410;8.232;2023-07-13T03:44:45;96906.20;;;18.26;78.11
79465;BME280;68932;47.410;8.232;2023-07-13T03:47:13;96901.79;;;18.24;78.14
79465;BME280;68932;47.410;8.232;2023-07-13T03:49:42;96906.81;;;18.23;78.33
79465;BME280;68932;47.410;8.232;2023-07-13T03:52:10;96906.14;;;18.23;78.37
79465;BME280;68932;47.410;8.232;2023-07-13T03:54:38;96904.37;;;18.23;78.57
79465;BME280;68932;47.410;8.232;2023-07-13T03:57:07;96904.41;;;18.24;78.65
79465;BME280;68932;47.410;8.232;2023-07-13T03:59:35;96909.75;;;18.26;78.65
79465;BME280;68932;47.410;8.232;2023-07-13T04:02:05;96912.04;;;18.28;78.77
79465;BME280;68932;47.410;8.232;2023-07-13T04:04:33;96913.06;;;18.30;78.90
79465;BME280;68932;47.410;8.232;2023-07-13T04:07:01;96913.90;;;18.32;78.94
79465;BME280;68932;47.410;8.232;2023-07-13T04:09:29;96914.58;;;18.34;79.06
79465;BME280;68932;47.410;8.232;2023-07-13T04:11:58;96917.69;;;18.37;79.12
79465;BME280;68932;47.410;8.232;2023-07-13T04:14:26;96917.81;;;18.40;79.14
79465;BME280;68932;47.410;8.232;2023-07-13T04:16:54;96917.52;;;18.43;79.31
79465;BME280;68932;47.410;8.232;2023-07-13T04:19:23;96917.81;;;18.43;79.32
79465;BME280;68932;47.410;8.232;2023-07-13T04:21:51;96921.48;;;18.44;79.35
79465;BME280;68932;47.410;8.232;2023-07-13T04:24:20;96916.45;;;18.44;79.47
79465;BME280;68932;47.410;8.232;2023-07-13T04:26:48;96915.05;;;18.46;79.61
79465;BME280;68932;47.410;8.232;2023-07-13T04:29:16;96920.19;;;18.48;79.67
79465;BME280;68932;47.410;8.232;2023-07-13T04:31:45;96919.52;;;18.49;79.58
79465;BME280;68932;47.410;8.232;2023-07-13T04:34:13;96922.71;;;18.51;79.58
79465;BME280;68932;47.410;8.232;2023-07-13T04:36:41;96926.39;;;18.52;79.73
79465;BME280;68932;47.410;8.232;2023-07-13T04:39:10;96927.83;;;18.53;79.69
79465;BME280;68932;47.410;8.232;2023-07-13T04:41:38;96930.23;;;18.54;79.72
79465;BME280;68932;47.410;8.232;2023-07-13T04:44:06;96931.48;;;18.56;79.66
79465;BME280;68932;47.410;8.232;2023-07-13T04:46:34;96941.91;;;18.58;79.74
79465;BME280;68932;47.410;8.232;2023-07-13T04:49:03;96941.57;;;18.60;79.73
79465;BME280;68932;47.410;8.232;2023-07-13T04:51:31;96944.30;;;18.61;79.67
79465;BME280;68932;47.410;8.232;2023-07-13T04:53:59;96947.75;;;18.62;79.66
79465;BME280;68932;47.410;8.232;2023-07-13T04:56:28;96953.84;;;18.65;79.64
79465;BME280;68932;47.410;8.232;2023-07-13T04:58:56;96957.48;;;18.68;79.67
79465;BME280;68932;47.410;8.232;2023-07-13T05:01:24;96957.65;;;18.69;79.60
79465;BME280;68932;47.410;8.232;2023-07-13T05:03:52;96952.39;;;18.70;79.58
79465;BME280;68932;47.410;8.232;2023-07-13T05:06:21;96949.61;;;18.71;79.59
79465;BME280;68932;47.410;8.232;2023-07-13T05:08:49;96953.27;;;18.72;79.58
79465;BME280;68932;47.410;8.232;2023-07-13T05:11:19;96961.09;;;18.72;79.57
79465;BME280;68932;47.410;8.232;2023-07-13T05:13:48;96971.41;;;18.72;79.35
79465;BME280;68932;47.410;8.232;2023-07-13T05:16:16;96966.29;;;18.72;79.18
79465;BME280;68932;47.410;8.232;2023-07-13T05:18:44;96969.24;;;18.72;79.08
79465;BME280;68932;47.410;8.232;2023-07-13T05:21:12;96972.15;;;18.72;79.08
79465;BME280;68932;47.410;8.232;2023-07-13T05:23:41;96979.00;;;18.72;79.13
79465;BME280;68932;47.410;8.232;2023-07-13T05:26:09;96989.03;;;18.71;79.19
79465;BME280;68932;47.410;8.232;2023-07-13T05:28:39;96998.04;;;18.70;79.09
79465;BME280;68932;47.410;8.232;2023-07-13T05:31:08;96999.13;;;18.67;78.87
79465;BME280;68932;47.410;8.232;2023-07-13T05:33:37;97003.89;;;18.63;79.03
79465;BME280;68932;47.410;8.232;2023-07-13T05:36:06;97004.97;;;18.59;79.03
79465;BME280;68932;47.410;8.232;2023-07-13T05:38:34;97003.09;;;18.59;79.25
79465;BME280;68932;47.410;8.232;2023-07-13T05:41:03;96999.66;;;18.59;79.22
79465;BME280;68932;47.410;8.232;2023-07-13T05:43:31;97003.81;;;18.60;79.43
79465;BME280;68932;47.410;8.232;2023-07-13T05:46:00;97004.98;;;18.61;79.35
79465;BME280;68932;47.410;8.232;2023-07-13T05:48:28;97004.85;;;18.61;79.40
79465;BME280;68932;47.410;8.232;2023-07-13T05:50:56;97009.89;;;18.62;79.46
79465;BME280;68932;47.410;8.232;2023-07-13T05:53:25;97012.06;;;18.63;79.41
79465;BME280;68932;47.410;8.232;2023-07-13T05:55:55;97014.61;;;18.64;79.32
79465;BME280;68932;47.410;8.232;2023-07-13T05:58:23;97020.86;;;18.66;79.10
79465;BME280;68932;47.410;8.232;2023-07-13T06:01:00;97024.52;;;18.66;78.98
79465;BME280;68932;47.410;8.232;2023-07-13T06:03:29;97026.80;;;18.67;78.96
79465;BME280;68932;47.410;8.232;2023-07-13T06:05:57;97030.04;;;18.68;78.97
79465;BME280;68932;47.410;8.232;2023-07-13T06:08:26;97031.70;;;18.67;79.06
79465;BME280;68932;47.410;8.232;2023-07-13T06:10:54;97032.27;;;18.67;79.03
79465;BME280;68932;47.410;8.232;2023-07-13T06:13:22;97032.11;;;18.69;79.17
79465;BME280;68932;47.410;8.232;2023-07-13T06:15:51;97036.69;;;18.69;79.03
79465;BME280;68932;47.410;8.232;2023-07-13T06:18:19;97037.95;;;18.69;78.97
79465;BME280;68932;47.410;8.232;2023-07-13T06:20:47;97041.52;;;18.69;78.95
79465;BME280;68932;47.410;8.232;2023-07-13T06:23:16;97043.33;;;18.68;79.02
79465;BME280;68932;47.410;8.232;2023-07-13T06:25:44;97050.21;;;18.69;79.04
79465;BME280;68932;47.410;8.232;2023-07-13T06:28:12;97059.44;;;18.69;79.20
79465;BME280;68932;47.410;8.232;2023-07-13T06:30:41;97055.33;;;18.69;79.02
79465;BME280;68932;47.410;8.232;2023-07-13T06:33:09;97051.70;;;18.70;79.06
79465;BME280;68932;47.410;8.232;2023-07-13T06:35:37;97046.17;;;18.70;79.20
79465;BME280;68932;47.410;8.232;2023-07-13T06:38:06;97047.95;;;18.72;79.36
79465;BME280;68932;47.410;8.232;2023-07-13T06:40:35;97051.66;;;18.74;79.30
79465;BME280;68932;47.410;8.232;2023-07-13T06:43:03;97053.04;;;18.74;79.22
79465;BME280;68932;47.410;8.232;2023-07-13T06:45:32;97056.64;;;18.74;79.09
79465;BME280;68932;47.410;8.232;2023-07-13T06:48:01;97057.11;;;18.72;79.21
79465;BME280;68932;47.410;8.232;2023-07-13T06:50:29;97061.39;;;18.76;79.30
79465;BME280;68932;47.410;8.232;2023-07-13T06:52:57;97058.48;;;18.83;79.37
79465;BME280;68932;47.410;8.232;2023-07-13T06:55:25;97058.04;;;18.91;79.23
79465;BME280;68932;47.410;8.232;2023-07-13T06:57:54;97061.48;;;18.99;78.85
79465;BME280;68932;47.410;8.232;2023-07-13T07:00:23;97067.48;;;19.07;78.81
79465;BME280;68932;47.410;8.232;2023-07-13T07:02:51;97076.11;;;19.11;78.79
79465;BME280;68932;47.410;8.232;2023-07-13T07:05:19;97074.83;;;19.13;78.55
79465;BME280;68932;47.410;8.232;2023-07-13T07:07:48;97075.95;;;19.14;78.28
79465;BME280;68932;47.410;8.232;2023-07-13T07:10:16;97071.92;;;19.15;78.45
79465;BME280;68932;47.410;8.232;2023-07-13T07:12:44;97071.94;;;19.20;78.28
79465;BME280;68932;47.410;8.232;2023-07-13T07:15:13;97072.74;;;19.24;78.24
79465;BME280;68932;47.410;8.232;2023-07-13T07:17:42;97071.30;;;19.28;78.25
79465;BME280;68932;47.410;8.232;2023-07-13T07:20:12;97070.64;;;19.32;78.29
79465;BME280;68932;47.410;8.232;2023-07-13T07:22:40;97071.35;;;19.38;78.41
79465;BME280;68932;47.410;8.232;2023-07-13T07:25:09;97069.15;;;19.44;78.44
79465;BME280;68932;47.410;8.232;2023-07-13T07:27:37;97066.91;;;19.52;78.32
79465;BME280;68932;47.410;8.232;2023-07-13T07:30:07;97070.68;;;19.62;78.33
79465;BME280;68932;47.410;8.232;2023-07-13T07:32:36;97075.74;;;19.72;78.29
79465;BME280;68932;47.410;8.232;2023-07-13T07:35:05;97075.10;;;19.77;77.56
79465;BME280;68932;47.410;8.232;2023-07-13T07:37:33;97074.57;;;19.78;77.16
79465;BME280;68932;47.410;8.232;2023-07-13T07:40:01;97069.61;;;19.80;76.52
79465;BME280;68932;47.410;8.232;2023-07-13T07:42:30;97064.48;;;19.83;76.64
79465;BME280;68932;47.410;8.232;2023-07-13T07:44:58;97067.05;;;19.87;76.05
79465;BME280;68932;47.410;8.232;2023-07-13T07:47:26;97071.00;;;19.90;75.91
79465;BME280;68932;47.410;8.232;2023-07-13T07:49:55;97074.02;;;19.96;76.18
79465;BME280;68932;47.410;8.232;2023-07-13T07:52:23;97071.84;;;20.02;76.08
79465;BME280;68932;47.410;8.232;2023-07-13T07:54:52;97069.02;;;20.05;75.42
79465;BME280;68932;47.410;8.232;2023-07-13T07:57:20;97070.58;;;20.10;75.85
79465;BME280;68932;47.410;8.232;2023-07-13T07:59:48;97078.84;;;20.20;76.17
79465;BME280;68932;47.410;8.232;2023-07-13T08:02:17;97088.45;;;20.30;76.07
79465;BME280;68932;47.410;8.232;2023-07-13T08:04:45;97092.02;;;20.35;75.98
79465;BME280;68932;47.410;8.232;2023-07-13T08:07:13;97089.20;;;20.39;75.39
79465;BME280;68932;47.410;8.232;2023-07-13T08:09:41;97090.37;;;20.41;75.15
79465;BME280;68932;47.410;8.232;2023-07-13T08:12:10;97087.41;;;20.44;74.88
79465;BME280;68932;47.410;8.232;2023-07-13T08:14:38;97089.61;;;20.52;74.52
79465;BME280;68932;47.410;8.232;2023-07-13T08:17:07;97089.98;;;20.65;75.08
79465;BME280;68932;47.410;8.232;2023-07-13T08:19:35;97089.27;;;20.77;74.09
79465;BME280;68932;47.410;8.232;2023-07-13T08:22:05;97086.55;;;20.83;73.26
79465;BME280;68932;47.410;8.232;2023-07-13T08:24:33;97088.14;;;20.90;72.44
79465;BME280;68932;47.410;8.232;2023-07-13T08:27:01;97083.43;;;20.94;72.02
79465;BME280;68932;47.410;8.232;2023-07-13T08:29:29;97085.26;;;21.03;72.43
79465;BME280;68932;47.410;8.232;2023-07-13T08:31:58;97087.66;;;21.18;72.13
79465;BME280;68932;47.410;8.232;2023-07-13T08:34:27;97091.41;;;21.24;71.37
79465;BME280;68932;47.410;8.232;2023-07-13T08:36:55;97094.52;;;21.28;70.85
79465;BME280;68932;47.410;8.232;2023-07-13T08:39:23;97092.47;;;21.33;70.22
79465;BME280;68932;47.410;8.232;2023-07-13T08:41:56;97092.60;;;21.38;70.76
79465;BME280;68932;47.410;8.232;2023-07-13T08:44:36;97092.64;;;21.44;70.53
79465;BME280;68932;47.410;8.232;2023-07-13T08:47:08;97094.38;;;21.48;70.53
79465;BME280;68932;47.410;8.232;2023-07-13T08:49:37;97090.33;;;21.51;70.34
79465;BME280;68932;47.410;8.232;2023-07-13T08:52:13;97089.39;;;21.51;69.93
79465;BME280;68932;47.410;8.232;2023-07-13T08:54:48;97092.51;;;21.50;69.91
79465;BME280;68932;47.410;8.232;2023-07-13T08:57:20;97091.00;;;21.55;69.53
79465;BME280;68932;47.410;8.232;2023-07-13T08:59:49;97091.39;;;21.63;68.79
79465;BME280;68932;47.410;8.232;2023-07-13T09:02:28;97086.77;;;21.67;67.89
79465;BME280;68932;47.410;8.232;2023-07-13T09:05:02;97086.61;;;21.67;68.02
79465;BME280;68932;47.410;8.232;2023-07-13T09:07:45;97085.87;;;21.68;66.87
79465;BME280;68932;47.410;8.232;2023-07-13T09:10:20;97080.73;;;21.74;67.53
79465;BME280;68932;47.410;8.232;2023-07-13T09:13:01;97079.55;;;21.83;67.94
79465;BME280;68932;47.410;8.232;2023-07-13T09:15:35;97077.23;;;21.99;67.47
79465;BME280;68932;47.410;8.232;2023-07-13T09:18:10;97074.00;;;22.10;65.94
79465;BME280;68932;47.410;8.232;2023-07-13T09:20:44;97082.38;;;22.17;65.37
79465;BME280;68932;47.410;8.232;2023-07-13T09:23:17;97081.80;;;22.20;65.37
79465;BME280;68932;47.410;8.232;2023-07-13T09:25:49;97079.04;;;22.31;65.98
79465;BME280;68932;47.410;8.232;2023-07-13T09:28:22;97088.17;;;22.48;65.60
79465;BME280;68932;47.410;8.232;2023-07-13T09:30:56;97087.17;;;22.57;63.70
79465;BME280;68932;47.410;8.232;2023-07-13T09:33:26;97090.17;;;22.62;63.34
79465;BME280;68932;47.410;8.232;2023-07-13T09:35:54;97091.36;;;22.64;63.50
79465;BME280;68932;47.410;8.232;2023-07-13T09:38:24;97091.42;;;22.67;63.53
79465;BME280;68932;47.410;8.232;2023-07-13T09:41:15;97095.47;;;22.74;63.37
79465;BME280;68932;47.410;8.232;2023-07-13T09:44:06;97096.48;;;22.73;63.13
79465;BME280;68932;47.410;8.232;2023-07-13T09:46:35;97098.20;;;22.70;62.33
79465;BME280;68932;47.410;8.232;2023-07-13T09:49:03;97099.34;;;22.71;61.82
79465;BME280;68932;47.410;8.232;2023-07-13T09:51:31;97099.01;;;22.78;62.39
79465;BME280;68932;47.410;8.232;2023-07-13T09:53:59;97094.28;;;22.88;62.64
79465;BME280;68932;47.410;8.232;2023-07-13T09:56:30;97086.25;;;23.03;62.02
79465;BME280;68932;47.410;8.232;2023-07-13T09:58:58;97086.20;;;23.20;62.43
79465;BME280;68932;47.410;8.232;2023-07-13T10:01:37;97089.77;;;23.27;59.86
79465;BME280;68932;47.410;8.232;2023-07-13T10:04:14;97095.71;;;23.36;60.12
79465;BME280;68932;47.410;8.232;2023-07-13T10:06:46;97091.90;;;23.39;60.07
79465;BME280;68932;47.410;8.232;2023-07-13T10:09:17;97094.16;;;23.43;60.33
79465;BME280;68932;47.410;8.232;2023-07-13T10:11:45;97093.41;;;23.53;60.87
79465;BME280;68932;47.410;8.232;2023-07-13T10:14:15;97094.20;;;23.66;61.30
79465;BME280;68932;47.410;8.232;2023-07-13T10:16:46;97096.31;;;23.71;58.75
79465;BME280;68932;47.410;8.232;2023-07-13T10:19:17;97095.80;;;23.65;58.25
79465;BME280;68932;47.410;8.232;2023-07-13T10:21:52;97099.69;;;23.52;59.20
79465;BME280;68932;47.410;8.232;2023-07-13T10:24:23;97100.54;;;23.47;59.78
79465;BME280;68932;47.410;8.232;2023-07-13T10:26:57;97100.91;;;23.42;58.28
79465;BME280;68932;47.410;8.232;2023-07-13T10:29:30;97102.47;;;23.38;57.90
79465;BME280;68932;47.410;8.232;2023-07-13T10:32:03;97104.54;;;23.36;58.91
79465;BME280;68932;47.410;8.232;2023-07-13T10:34:37;97104.95;;;23.41;60.39
79465;BME280;68932;47.410;8.232;2023-07-13T10:37:07;97105.56;;;23.47;59.54
79465;BME280;68932;47.410;8.232;2023-07-13T10:39:44;97106.13;;;23.48;59.72
79465;BME280;68932;47.410;8.232;2023-07-13T10:42:18;97104.36;;;23.51;59.71
79465;BME280;68932;47.410;8.232;2023-07-13T10:44:52;97108.73;;;23.58;60.72
79465;BME280;68932;47.410;8.232;2023-07-13T10:47:20;97102.59;;;23.63;58.31
79465;BME280;68932;47.410;8.232;2023-07-13T10:49:52;97102.01;;;23.72;58.21
79465;BME280;68932;47.410;8.232;2023-07-13T10:52:41;97100.80;;;23.77;58.33
79465;BME280;68932;47.410;8.232;2023-07-13T10:55:34;97100.44;;;23.86;59.33
79465;BME280;68932;47.410;8.232;2023-07-13T10:58:11;97095.86;;;23.99;58.38
79465;BME280;68932;47.410;8.232;2023-07-13T11:00:48;97099.70;;;24.15;58.62
79465;BME280;68932;47.410;8.232;2023-07-13T11:03:20;97097.49;;;24.26;58.72
79465;BME280;68932;47.410;8.232;2023-07-13T11:06:03;97097.39;;;24.39;58.89
79465;BME280;68932;47.410;8.232;2023-07-13T11:08:36;97096.60;;;24.47;58.53
79465;BME280;68932;47.410;8.232;2023-07-13T11:11:05;97086.64;;;24.58;57.69
79465;BME280;68932;47.410;8.232;2023-07-13T11:14:00;97087.29;;;24.72;57.10
79465;BME280;68932;47.410;8.232;2023-07-13T11:16:44;97086.09;;;24.81;57.00
79465;BME280;68932;47.410;8.232;2023-07-13T11:19:41;97080.30;;;24.94;56.08
79465;BME280;68932;47.410;8.232;2023-07-13T11:22:21;97075.14;;;25.05;54.26
79465;BME280;68932;47.410;8.232;2023-07-13T11:24:52;97072.39;;;25.16;54.46
79465;BME280;68932;47.410;8.232;2023-07-13T11:27:36;97072.11;;;25.26;53.44
79465;BME280;68932;47.410;8.232;2023-07-13T11:30:35;97067.04;;;25.27;53.32
79465;BME280;68932;47.410;8.232;2023-07-13T11:33:20;97068.61;;;25.28;52.13
79465;BME280;68932;47.410;8.232;2023-07-13T11:35:59;97063.30;;;25.31;52.94
79465;BME280;68932;47.410;8.232;2023-07-13T11:38:35;97059.35;;;25.43;52.81
79465;BME280;68932;47.410;8.232;2023-07-13T11:41:21;97056.21;;;25.57;52.72
79465;BME280;68932;47.410;8.232;2023-07-13T11:43:53;97057.65;;;25.71;52.91
79465;BME280;68932;47.410;8.232;2023-07-13T11:46:23;97055.59;;;25.83;50.95
79465;BME280;68932;47.410;8.232;2023-07-13T11:48:52;97051.53;;;25.83;50.54
79465;BME280;68932;47.410;8.232;2023-07-13T11:51:23;97055.25;;;25.83;50.52
79465;BME280;68932;47.410;8.232;2023-07-13T11:53:55;97056.52;;;25.82;50.77
79465;BME280;68932;47.410;8.232;2023-07-13T11:56:25;97056.15;;;25.66;50.09
79465;BME280;68932;47.410;8.232;2023-07-13T11:58:56;97064.39;;;25.46;50.00
79465;BME280;68932;47.410;8.232;2023-07-13T12:01:26;97065.54;;;25.13;48.35
79465;BME280;68932;47.410;8.232;2023-07-13T12:03:55;97064.36;;;24.73;48.80
79465;BME280;68932;47.410;8.232;2023-07-13T12:06:28;97061.72;;;24.45;48.38
79465;BME280;68932;47.410;8.232;2023-07-13T12:09:02;97062.95;;;24.18;48.54
79465;BME280;68932;47.410;8.232;2023-07-13T12:11:34;97066.46;;;24.04;49.78
79465;BME280;68932;47.410;8.232;2023-07-13T12:14:03;97066.80;;;23.95;50.48
79465;BME280;68932;47.410;8.232;2023-07-13T12:16:32;97067.55;;;23.93;50.58
79465;BME280;68932;47.410;8.232;2023-07-13T12:19:02;97058.35;;;23.97;55.07
79465;BME280;68932;47.410;8.232;2023-07-13T12:21:37;97058.05;;;24.08;56.28
79465;BME280;68932;47.410;8.232;2023-07-13T12:24:12;97070.26;;;24.26;56.12
79465;BME280;68932;47.410;8.232;2023-07-13T12:26:41;97064.07;;;24.51;54.58
79465;BME280;68932;47.410;8.232;2023-07-13T12:29:16;97058.65;;;24.73;53.03
79465;BME280;68932;47.410;8.232;2023-07-13T12:31:46;97060.02;;;24.97;53.88
79465;BME280;68932;47.410;8.232;2023-07-13T12:34:16;97062.50;;;25.22;53.34
79465;BME280;68932;47.410;8.232;2023-07-13T12:36:49;97064.17;;;25.40;51.69
79465;BME280;68932;47.410;8.232;2023-07-13T12:39:20;97062.16;;;25.42;51.81
79465;BME280;68932;47.410;8.232;2023-07-13T12:41:52;97060.84;;;25.37;51.70
79465;BME280;68932;47.410;8.232;2023-07-13T12:44:27;97058.30;;;25.33;51.03
79465;BME280;68932;47.410;8.232;2023-07-13T12:46:58;97057.61;;;25.39;52.29
79465;BME280;68932;47.410;8.232;2023-07-13T12:49:32;97051.66;;;25.57;51.85
79465;BME280;68932;47.410;8.232;2023-07-13T12:52:02;97048.98;;;25.60;51.08
79465;BME280;68932;47.410;8.232;2023-07-13T12:54:31;97052.66;;;25.54;51.46
79465;BME280;68932;47.410;8.232;2023-07-13T12:57:01;97052.08;;;25.45;49.66
79465;BME280;68932;47.410;8.232;2023-07-13T12:59:31;97056.35;;;25.37;50.07
79465;BME280;68932;47.410;8.232;2023-07-13T13:02:00;97062.05;;;25.30;49.90
79465;BME280;68932;47.410;8.232;2023-07-13T13:04:29;97059.23;;;25.20;49.04
79465;BME280;68932;47.410;8.232;2023-07-13T13:07:08;97054.38;;;25.11;48.70
79465;BME280;68932;47.410;8.232;2023-07-13T13:09:37;97051.34;;;24.98;47.74
79465;BME280;68932;47.410;8.232;2023-07-13T13:12:07;97046.98;;;24.84;47.63
79465;BME280;68932;47.410;8.232;2023-07-13T13:14:35;97047.01;;;24.74;48.41
79465;BME280;68932;47.410;8.232;2023-07-13T13:17:07;97044.38;;;24.68;49.25